Airfield :
LOGIN :

Register | Disclaimer

   EN    FR    IT 

 










Legend :    VFR   Marginal VFR   IFR   Intensive IFR   Very Intensive IFR
Visi :
Ceiling :
>= 8 km
>= 3000ft
5 to 8 km
1000 to 3000 ft
1500m to 5 km
500 to 1000 ft
800 to 1500m
200 to 500 ft
< 800m
< 200 ft
Symbols :   Thunderstorms  Fog  Heavy snow  Heavy precipitations  Wind > 20 kt
SIGMETs :     Misc.  Thunderstorms  Icing  Turbulence  Mountain Waves  Volcanic Ashes






- Airport Elevation : 313 ft
- IATA code : LEH


LFOH - Le Havre Octeville

CURRENT METAR :
  • 051630Z AUTO 35010KT 8000 NSC 22/14 Q1015 NOSIG

EXPIRED METARs :
  • 051600Z AUTO 35009KT CAVOK 22/13 Q1015 TEMPO 20012KT
  • 051530Z AUTO 35009KT CAVOK 22/13 Q1015 TEMPO 20012KT
  • 051500Z AUTO 36009KT CAVOK 22/12 Q1015 BECMG 20012KT
  • 051430Z AUTO 35007KT CAVOK 22/11 Q1015 BECMG 20012KT
  • 051400Z AUTO 34009KT CAVOK 22/10 Q1015 BECMG 20012KT

TAF AMD TAF LFOH
Valid from the 05 at 16:00 until the 06 at 12:00 UTC


051640Z 0516/0612 35012KT CAVOK
BECMG 0520/0522 VRB02KT
ATIS : +33 2 35 54 64 93



MET'MAP, your aeronautical weather chart ! - Copyright ORBIFLY December 2007 - Disclaimer

ORBIFLY MET'MAP TEAM :

Programming & Development : Alexandra Zaïnal
Concept & original design : Baudouin d'Aumeries
Assistance for programming : Marc-Olivier Méhu
Technical & hardware support : Manuel Goepfert

Contact : metmap@orbifly.com




SOURCES & CREDITS :

   NOAA